createdAt,value
2022-07-28T00:01:13.591Z,100936.00
2022-07-28T00:03:41.643Z,100936.00
2022-07-28T00:06:10.026Z,100931.00
2022-07-28T00:08:39.129Z,100931.00
2022-07-28T00:11:07.114Z,100930.00
2022-07-28T00:13:34.963Z,100932.00
2022-07-28T00:16:02.985Z,100928.00
2022-07-28T00:18:30.986Z,100933.00
2022-07-28T00:20:59.172Z,100926.00
2022-07-28T00:23:37.588Z,100921.00
2022-07-28T00:26:08.987Z,100927.00
2022-07-28T00:28:37.446Z,100922.00
2022-07-28T00:31:10.612Z,100922.00
2022-07-28T00:33:40.629Z,100923.00
2022-07-28T00:36:11.536Z,100925.00
2022-07-28T00:38:44.257Z,100930.00
2022-07-28T00:41:14.116Z,100929.00
2022-07-28T00:43:49.998Z,100936.00
2022-07-28T00:46:20.514Z,100934.00
2022-07-28T00:48:51.230Z,100927.00
2022-07-28T00:51:20.705Z,100915.00
2022-07-28T00:53:48.726Z,100926.00
2022-07-28T00:56:17.020Z,100930.00
2022-07-28T00:58:47.392Z,100933.00
2022-07-28T01:01:18.053Z,100934.00
2022-07-28T01:03:49.786Z,100929.00
2022-07-28T01:06:38.843Z,100931.00
2022-07-28T01:09:39.933Z,100927.00
2022-07-28T01:12:28.812Z,100927.00
2022-07-28T01:15:08.669Z,100925.00
2022-07-28T01:18:05.807Z,100923.00
2022-07-28T01:20:48.146Z,100920.00
2022-07-28T01:23:43.981Z,100921.00
2022-07-28T01:26:53.973Z,100924.00
2022-07-28T01:29:47.789Z,100917.00
2022-07-28T01:32:20.629Z,100924.00
2022-07-28T01:35:00.272Z,100922.00
2022-07-28T01:37:33.389Z,100918.00
2022-07-28T01:40:07.443Z,100913.00
2022-07-28T01:42:43.916Z,100917.00
2022-07-28T01:45:12.957Z,100915.00
2022-07-28T01:47:42.288Z,100905.00
2022-07-28T01:50:12.081Z,100914.00
2022-07-28T01:52:41.629Z,100910.00
2022-07-28T01:55:10.906Z,100898.00
2022-07-28T01:57:39.017Z,100901.00
2022-07-28T02:00:12.896Z,100893.00
2022-07-28T02:02:44.849Z,100891.00
2022-07-28T02:05:16.413Z,100898.00
2022-07-28T02:07:48.854Z,100895.00
2022-07-28T02:10:18.311Z,100907.00
2022-07-28T02:12:48.335Z,100902.00
2022-07-28T02:15:16.852Z,100903.00
2022-07-28T02:17:46.582Z,100895.00
2022-07-28T02:20:15.898Z,100903.00
2022-07-28T02:22:43.865Z,100902.00
2022-07-28T02:25:12.268Z,100902.00
2022-07-28T02:28:01.697Z,100902.00
2022-07-28T02:30:41.417Z,100905.00
2022-07-28T02:34:00.429Z,100909.00
2022-07-28T02:36:20.820Z,100897.00
2022-07-28T02:38:50.807Z,100901.00
2022-07-28T02:41:27.816Z,100899.00
2022-07-28T02:43:59.154Z,100899.00
2022-07-28T02:46:42.888Z,100901.00
2022-07-28T02:49:17.626Z,100904.00
2022-07-28T02:51:46.733Z,100900.00
2022-07-28T02:54:15.910Z,100908.00
2022-07-28T02:56:53.101Z,100902.00
2022-07-28T02:59:22.659Z,100907.00
2022-07-28T03:01:51.553Z,100905.00
2022-07-28T03:04:55.145Z,100905.00
2022-07-28T03:07:23.036Z,100921.00
2022-07-28T03:09:50.918Z,100916.00
2022-07-28T03:12:19.229Z,100922.00
2022-07-28T03:14:47.346Z,100922.00
2022-07-28T03:17:15.629Z,100918.00
2022-07-28T03:19:43.918Z,100924.00
2022-07-28T03:22:12.189Z,100934.00
2022-07-28T03:24:51.174Z,100926.00
2022-07-28T03:27:31.417Z,100927.00
2022-07-28T03:30:06.092Z,100919.00
2022-07-28T03:32:41.396Z,100929.00
2022-07-28T03:35:09.783Z,100933.00
2022-07-28T03:38:09.303Z,100927.00
2022-07-28T03:40:38.172Z,100923.00
2022-07-28T03:43:08.779Z,100930.00
2022-07-28T03:45:37.032Z,100932.00
2022-07-28T03:48:08.955Z,100932.00
2022-07-28T03:50:36.957Z,100932.00
2022-07-28T03:53:04.955Z,100930.00
2022-07-28T03:55:35.532Z,100932.00
2022-07-28T03:58:03.435Z,100937.00
2022-07-28T04:00:31.733Z,100937.00
2022-07-28T04:02:59.700Z,100939.00
2022-07-28T04:05:27.694Z,100930.00
2022-07-28T04:07:55.742Z,100927.00
2022-07-28T04:10:23.633Z,100932.00
2022-07-28T04:12:52.956Z,100926.00
2022-07-28T04:15:22.086Z,100929.00
2022-07-28T04:17:50.505Z,100928.00
2022-07-28T04:20:20.078Z,100933.00
2022-07-28T04:22:48.836Z,100936.00
2022-07-28T04:25:18.860Z,100925.00
2022-07-28T04:27:46.940Z,100919.00
2022-07-28T04:30:20.206Z,100917.00
2022-07-28T04:32:49.933Z,100926.00
2022-07-28T04:35:19.711Z,100931.00
2022-07-28T04:37:51.536Z,100930.00
2022-07-28T04:40:19.600Z,100932.00
2022-07-28T04:42:47.543Z,100936.00
2022-07-28T04:45:15.372Z,100942.00
2022-07-28T04:47:43.456Z,100934.00
2022-07-28T04:50:12.937Z,100928.00
2022-07-28T04:52:41.258Z,100937.00
2022-07-28T04:55:09.476Z,100930.00
2022-07-28T04:57:37.628Z,100946.00
2022-07-28T05:00:12.682Z,100940.00
2022-07-28T05:02:42.964Z,100942.00
2022-07-28T05:05:11.449Z,100938.00
2022-07-28T05:07:40.480Z,100936.00
2022-07-28T05:10:10.241Z,100940.00
2022-07-28T05:12:38.684Z,100936.00
2022-07-28T05:15:07.932Z,100942.00
2022-07-28T05:17:37.185Z,100935.00
2022-07-28T05:20:06.090Z,100941.00
2022-07-28T05:22:44.766Z,100940.00
2022-07-28T05:25:17.651Z,100941.00
2022-07-28T05:27:46.544Z,100938.00
2022-07-28T05:30:15.473Z,100940.00
2022-07-28T05:32:45.414Z,100936.00
2022-07-28T05:35:13.841Z,100943.00
2022-07-28T05:37:41.968Z,100950.00
2022-07-28T05:40:18.462Z,100954.00
2022-07-28T05:42:47.999Z,100949.00
2022-07-28T05:45:17.616Z,100949.00
2022-07-28T05:47:47.144Z,100950.00
2022-07-28T05:50:17.281Z,100957.00
2022-07-28T05:52:46.363Z,100953.00
2022-07-28T05:55:14.651Z,100955.00
2022-07-28T05:57:43.125Z,100951.00
2022-07-28T06:00:19.199Z,100961.00
2022-07-28T06:02:49.696Z,100956.00
2022-07-28T06:05:19.756Z,100968.00
2022-07-28T06:07:48.966Z,100972.00
2022-07-28T06:10:19.773Z,100963.00
2022-07-28T06:12:49.938Z,100964.00
2022-07-28T06:15:23.191Z,100969.00
2022-07-28T06:17:55.969Z,100969.00
2022-07-28T06:20:25.156Z,100969.00
2022-07-28T06:22:55.383Z,100973.00
2022-07-28T06:25:32.419Z,100964.00
2022-07-28T06:28:03.029Z,100968.00
2022-07-28T06:30:31.571Z,100969.00
2022-07-28T06:33:00.305Z,100980.00
2022-07-28T06:35:28.405Z,100981.00
2022-07-28T06:37:56.316Z,100977.00
2022-07-28T06:40:24.477Z,100973.00
2022-07-28T06:42:52.620Z,100977.00
2022-07-28T06:45:21.940Z,100972.00
2022-07-28T06:47:51.084Z,100964.00
2022-07-28T06:50:24.835Z,100971.00
2022-07-28T06:52:58.773Z,100975.00
2022-07-28T06:55:28.447Z,100976.00
2022-07-28T06:58:03.893Z,100978.00
2022-07-28T07:00:32.103Z,100973.00
2022-07-28T07:03:01.743Z,100965.00
2022-07-28T07:05:32.710Z,100961.00
2022-07-28T07:08:01.189Z,100959.00
2022-07-28T07:10:29.219Z,100962.00
2022-07-28T07:12:57.301Z,100965.00
2022-07-28T07:15:25.383Z,100964.00
2022-07-28T07:17:54.431Z,100948.00
2022-07-28T07:20:22.452Z,100945.00
2022-07-28T07:22:50.445Z,100952.00
2022-07-28T07:25:19.702Z,100947.00
2022-07-28T07:27:48.077Z,100944.00
2022-07-28T07:30:17.159Z,100948.00
2022-07-28T07:32:45.389Z,100954.00
2022-07-28T07:35:13.766Z,100953.00
2022-07-28T07:37:41.974Z,100953.00
2022-07-28T07:40:11.102Z,100958.00
2022-07-28T07:42:39.042Z,100949.00
2022-07-28T07:45:07.456Z,100955.00
2022-07-28T07:47:35.497Z,100958.00
2022-07-28T07:50:04.516Z,100955.00
2022-07-28T07:52:32.903Z,100953.00
2022-07-28T07:55:01.550Z,100947.00
2022-07-28T07:57:30.181Z,100957.00
2022-07-28T07:59:58.392Z,100953.00
2022-07-28T08:02:26.387Z,100954.00
2022-07-28T08:04:55.731Z,100962.00
2022-07-28T08:07:24.039Z,100960.00
2022-07-28T08:09:52.342Z,100950.00
2022-07-28T08:12:24.942Z,100957.00
2022-07-28T08:14:54.116Z,100942.00
2022-07-28T08:17:25.830Z,100954.00
2022-07-28T08:19:54.520Z,100958.00
2022-07-28T08:22:23.035Z,100947.00
2022-07-28T08:24:51.029Z,100958.00
2022-07-28T08:27:19.562Z,100945.00
2022-07-28T08:29:47.534Z,100953.00
2022-07-28T08:32:15.588Z,100952.00
2022-07-28T08:34:43.767Z,100946.00
2022-07-28T08:37:11.706Z,100961.00
2022-07-28T08:39:39.690Z,100945.00
2022-07-28T08:42:26.103Z,100954.00
2022-07-28T08:44:57.148Z,100945.00
2022-07-28T08:47:35.630Z,100943.00
2022-07-28T08:50:08.915Z,100943.00
2022-07-28T08:52:38.879Z,100943.00
2022-07-28T08:55:09.130Z,100938.00
2022-07-28T08:57:41.529Z,100940.00
2022-07-28T09:00:11.337Z,100939.00
2022-07-28T09:02:42.310Z,100931.00
2022-07-28T09:05:10.556Z,100934.00
2022-07-28T09:07:44.651Z,100924.00
2022-07-28T09:10:16.972Z,100937.00
2022-07-28T09:12:45.386Z,100936.00
2022-07-28T09:15:13.882Z,100929.00
2022-07-28T09:17:43.063Z,100932.00
2022-07-28T09:20:11.953Z,100935.00
2022-07-28T09:23:02.786Z,100934.00
2022-07-28T09:25:31.148Z,100935.00
2022-07-28T09:28:08.878Z,100939.00
2022-07-28T09:30:53.266Z,100937.00
2022-07-28T09:33:41.876Z,100938.00
2022-07-28T09:36:16.672Z,100939.00
2022-07-28T09:38:45.001Z,100934.00
2022-07-28T09:41:13.301Z,100931.00
2022-07-28T09:43:43.624Z,100941.00
2022-07-28T09:46:16.572Z,100941.00
2022-07-28T09:48:50.704Z,100937.00
2022-07-28T09:51:24.597Z,100935.00
2022-07-28T09:53:53.671Z,100927.00
2022-07-28T09:56:23.616Z,100925.00
2022-07-28T09:58:59.655Z,100930.00
2022-07-28T10:01:36.832Z,100926.00
2022-07-28T10:04:05.259Z,100925.00
2022-07-28T10:06:34.716Z,100926.00
2022-07-28T10:09:08.082Z,100923.00
2022-07-28T10:11:41.186Z,100921.00
2022-07-28T10:14:09.482Z,100919.00
2022-07-28T10:16:43.742Z,100920.00
2022-07-28T10:19:11.573Z,100920.00
2022-07-28T10:21:46.313Z,100917.00
2022-07-28T10:24:25.582Z,100908.00
2022-07-28T10:26:57.401Z,100918.00
2022-07-28T10:29:25.299Z,100917.00
2022-07-28T10:32:05.525Z,100914.00
2022-07-28T10:34:51.097Z,100914.00
2022-07-28T10:37:24.308Z,100910.00
2022-07-28T10:40:10.823Z,100905.00
2022-07-28T10:42:41.029Z,100904.00
2022-07-28T10:45:13.534Z,100903.00
2022-07-28T10:47:42.715Z,100905.00
2022-07-28T10:50:11.422Z,100905.00
2022-07-28T10:52:50.672Z,100900.00
2022-07-28T10:55:38.626Z,100906.00
2022-07-28T10:58:39.028Z,100898.00
2022-07-28T11:01:17.116Z,100896.00
2022-07-28T11:03:54.861Z,100890.00
2022-07-28T11:06:40.120Z,100892.00
2022-07-28T11:09:17.223Z,100887.00
2022-07-28T11:11:47.043Z,100886.00
2022-07-28T11:14:27.052Z,100885.00
2022-07-28T11:17:10.092Z,100883.00
2022-07-28T11:20:07.075Z,100885.00
2022-07-28T11:22:34.402Z,100872.00
2022-07-28T11:25:20.845Z,100885.00
2022-07-28T11:27:54.628Z,100877.00
2022-07-28T11:30:37.059Z,100880.00
2022-07-28T11:33:11.492Z,100877.00
2022-07-28T11:35:42.165Z,100873.00
2022-07-28T11:38:14.753Z,100868.00
2022-07-28T11:40:46.407Z,100867.00
2022-07-28T11:43:36.331Z,100878.00
2022-07-28T11:46:11.279Z,100865.00
2022-07-28T11:48:48.132Z,100865.00
2022-07-28T11:51:16.264Z,100864.00
2022-07-28T11:53:50.614Z,100858.00
2022-07-28T11:56:32.640Z,100857.00
2022-07-28T11:59:03.565Z,100862.00
2022-07-28T12:01:32.365Z,100863.00
2022-07-28T12:04:14.949Z,100853.00
2022-07-28T12:06:51.185Z,100855.00
2022-07-28T12:09:25.778Z,100854.00
2022-07-28T12:11:56.091Z,100855.00
2022-07-28T12:14:24.362Z,100846.00
2022-07-28T12:16:52.677Z,100853.00
2022-07-28T12:19:22.179Z,100839.00
2022-07-28T12:21:55.593Z,100844.00
2022-07-28T12:24:45.125Z,100833.00
2022-07-28T12:27:14.956Z,100835.00
2022-07-28T12:29:47.907Z,100830.00
2022-07-28T12:32:17.800Z,100829.00
2022-07-28T12:34:46.327Z,100818.00
2022-07-28T12:37:14.818Z,100825.00
2022-07-28T12:39:44.381Z,100815.00
2022-07-28T12:42:13.501Z,100818.00
2022-07-28T12:44:47.802Z,100820.00
2022-07-28T12:47:26.823Z,100822.00
2022-07-28T12:50:15.291Z,100824.00
2022-07-28T12:52:45.770Z,100815.00
2022-07-28T12:55:25.287Z,100812.00
2022-07-28T12:57:53.552Z,100813.00
2022-07-28T13:00:31.327Z,100811.00
2022-07-28T13:03:01.849Z,100807.00
2022-07-28T13:05:56.810Z,100803.00
2022-07-28T13:08:27.701Z,100813.00
2022-07-28T13:10:59.432Z,100809.00
2022-07-28T13:13:28.007Z,100791.00
2022-07-28T13:16:19.013Z,100804.00
2022-07-28T13:18:55.529Z,100798.00
2022-07-28T13:21:59.627Z,100797.00
2022-07-28T13:24:30.824Z,100801.00
2022-07-28T13:27:00.019Z,100800.00
2022-07-28T13:29:28.413Z,100798.00
2022-07-28T13:31:56.376Z,100800.00
2022-07-28T13:34:24.414Z,100801.00
2022-07-28T13:36:52.696Z,100791.00
2022-07-28T13:39:20.939Z,100801.00
2022-07-28T13:41:57.372Z,100794.00
2022-07-28T13:44:30.679Z,100790.00
2022-07-28T13:46:59.656Z,100793.00
2022-07-28T13:49:29.061Z,100785.00
2022-07-28T13:51:57.215Z,100768.00
2022-07-28T13:54:25.502Z,100771.00
2022-07-28T13:56:53.942Z,100782.00
2022-07-28T13:59:21.910Z,100766.00
2022-07-28T14:01:50.404Z,100772.00
2022-07-28T14:04:21.270Z,100772.00
2022-07-28T14:06:50.015Z,100777.00
2022-07-28T14:09:21.007Z,100765.00
2022-07-28T14:11:53.316Z,100775.00
2022-07-28T14:14:25.454Z,100761.00
2022-07-28T14:16:55.127Z,100762.00
2022-07-28T14:19:38.202Z,100767.00
2022-07-28T14:22:13.203Z,100764.00
2022-07-28T14:24:43.040Z,100758.00
2022-07-28T14:27:11.597Z,100757.00
2022-07-28T14:29:40.256Z,100757.00
2022-07-28T14:32:08.322Z,100753.00
2022-07-28T14:34:36.461Z,100757.00
2022-07-28T14:37:08.460Z,100748.00
2022-07-28T14:39:37.350Z,100750.00
2022-07-28T14:42:06.147Z,100744.00
2022-07-28T14:44:33.951Z,100747.00
2022-07-28T14:47:02.084Z,100743.00
2022-07-28T14:49:30.304Z,100746.00
2022-07-28T14:51:59.545Z,100743.00
2022-07-28T14:54:28.210Z,100734.00
2022-07-28T14:56:56.712Z,100738.00
2022-07-28T14:59:24.653Z,100737.00
2022-07-28T15:01:52.865Z,100735.00
2022-07-28T15:04:20.923Z,100735.00
2022-07-28T15:06:48.812Z,100734.00
2022-07-28T15:09:16.737Z,100731.00
2022-07-28T15:11:47.488Z,100734.00
2022-07-28T15:14:16.445Z,100735.00
2022-07-28T15:16:47.098Z,100735.00
2022-07-28T15:19:14.863Z,100732.00
2022-07-28T15:21:44.989Z,100728.00
2022-07-28T15:24:13.271Z,100728.00
2022-07-28T15:26:41.539Z,100723.00
2022-07-28T15:29:09.060Z,100718.00
2022-07-28T15:31:38.040Z,100723.00
2022-07-28T15:34:07.315Z,100719.00
2022-07-28T15:36:37.452Z,100720.00
2022-07-28T15:39:07.661Z,100725.00
2022-07-28T15:41:36.735Z,100726.00
2022-07-28T15:44:04.685Z,100715.00
2022-07-28T15:46:33.663Z,100715.00
2022-07-28T15:49:06.055Z,100723.00
2022-07-28T15:51:35.188Z,100713.00
2022-07-28T15:54:03.955Z,100713.00
2022-07-28T15:56:34.505Z,100708.00
2022-07-28T15:59:03.563Z,100710.00
2022-07-28T16:01:31.688Z,100710.00
2022-07-28T16:04:01.523Z,100704.00
2022-07-28T16:06:49.873Z,100700.00
2022-07-28T16:09:18.216Z,100701.00
2022-07-28T16:11:46.221Z,100694.00
2022-07-28T16:14:13.910Z,100699.00
2022-07-28T16:16:41.739Z,100701.00
2022-07-28T16:19:25.162Z,100690.00
2022-07-28T16:21:57.684Z,100700.00
2022-07-28T16:24:25.501Z,100692.00
2022-07-28T16:26:53.248Z,100687.00
2022-07-28T16:29:21.207Z,100686.00
2022-07-28T16:31:49.118Z,100692.00
2022-07-28T16:34:17.480Z,100690.00
2022-07-28T16:36:46.979Z,100703.00
2022-07-28T16:39:14.601Z,100692.00
2022-07-28T16:41:47.502Z,100691.00
2022-07-28T16:44:16.349Z,100688.00
2022-07-28T16:46:44.529Z,100688.00
2022-07-28T16:49:12.439Z,100692.00
2022-07-28T16:51:40.198Z,100694.00
2022-07-28T16:54:08.084Z,100680.00
2022-07-28T16:56:35.857Z,100685.00
2022-07-28T16:59:03.753Z,100685.00
2022-07-28T17:01:31.366Z,100690.00
2022-07-28T17:03:59.262Z,100690.00
2022-07-28T17:06:27.075Z,100687.00
2022-07-28T17:08:54.575Z,100695.00
2022-07-28T17:11:22.359Z,100690.00
2022-07-28T17:13:50.017Z,100688.00
2022-07-28T17:16:17.768Z,100682.00
2022-07-28T17:18:45.412Z,100685.00
2022-07-28T17:21:13.283Z,100685.00
2022-07-28T17:23:41.191Z,100680.00
2022-07-28T17:28:56.457Z,100687.00
2022-07-28T17:31:24.116Z,100689.00
2022-07-28T17:33:51.753Z,100689.00
2022-07-28T17:36:19.421Z,100686.00
2022-07-28T17:38:47.045Z,100687.00
2022-07-28T17:41:14.966Z,100689.00
2022-07-28T17:43:45.609Z,100691.00
2022-07-28T17:46:13.427Z,100695.00
2022-07-28T17:48:42.013Z,100684.00
2022-07-28T17:51:09.627Z,100691.00
2022-07-28T17:53:39.636Z,100698.00
2022-07-28T17:56:08.653Z,100701.00
2022-07-28T17:58:36.638Z,100690.00
2022-07-28T18:01:12.215Z,100697.00
2022-07-28T18:03:56.619Z,100691.00
2022-07-28T18:06:26.672Z,100696.00
2022-07-28T18:08:54.378Z,100686.00
2022-07-28T18:11:21.834Z,100689.00
2022-07-28T18:14:04.816Z,100692.00
2022-07-28T18:16:34.757Z,100690.00
2022-07-28T18:19:03.579Z,100694.00
2022-07-28T18:21:31.516Z,100691.00
2022-07-28T18:23:59.256Z,100683.00
2022-07-28T18:26:26.838Z,100692.00
2022-07-28T18:28:54.461Z,100686.00
2022-07-28T18:31:22.852Z,100690.00
2022-07-28T18:33:50.686Z,100687.00
2022-07-28T18:36:18.353Z,100690.00
2022-07-28T18:38:45.907Z,100688.00
2022-07-28T18:41:13.670Z,100683.00
2022-07-28T18:43:41.322Z,100688.00
2022-07-28T18:46:09.281Z,100691.00
2022-07-28T18:48:38.303Z,100688.00
2022-07-28T18:51:06.000Z,100683.00
2022-07-28T18:53:33.632Z,100682.00
2022-07-28T18:56:04.772Z,100681.00
2022-07-28T18:58:32.192Z,100685.00
2022-07-28T19:01:00.849Z,100685.00
2022-07-28T19:03:28.521Z,100683.00
2022-07-28T19:05:58.482Z,100684.00
2022-07-28T19:08:26.180Z,100681.00
2022-07-28T19:10:54.100Z,100681.00
2022-07-28T19:13:21.828Z,100683.00
2022-07-28T19:15:49.490Z,100689.00
2022-07-28T19:18:17.222Z,100683.00
2022-07-28T19:20:47.668Z,100680.00
2022-07-28T19:23:15.093Z,100684.00
2022-07-28T19:25:42.691Z,100688.00
2022-07-28T19:28:12.115Z,100690.00
2022-07-28T19:30:39.895Z,100686.00
2022-07-28T19:33:07.411Z,100692.00
2022-07-28T19:35:34.939Z,100701.00
2022-07-28T19:38:02.861Z,100693.00
2022-07-28T19:40:32.283Z,100705.00
2022-07-28T19:43:00.505Z,100710.00
2022-07-28T19:45:28.307Z,100705.00
2022-07-28T19:47:55.980Z,100719.00
2022-07-28T19:50:23.810Z,100714.00
2022-07-28T19:52:51.235Z,100707.00
2022-07-28T19:55:19.030Z,100711.00
2022-07-28T19:57:47.078Z,100709.00
2022-07-28T20:00:17.688Z,100718.00
2022-07-28T20:02:46.198Z,100712.00
2022-07-28T20:05:14.248Z,100719.00
2022-07-28T20:07:42.623Z,100722.00
2022-07-28T20:10:10.425Z,100723.00
2022-07-28T20:12:38.264Z,100722.00
2022-07-28T20:15:07.045Z,100712.00
2022-07-28T20:17:39.282Z,100724.00
2022-07-28T20:20:11.574Z,100727.00
2022-07-28T20:22:41.329Z,100724.00
2022-07-28T20:25:11.174Z,100724.00
2022-07-28T20:27:40.334Z,100720.00
2022-07-28T20:30:13.553Z,100721.00
2022-07-28T20:32:42.228Z,100718.00
2022-07-28T20:35:11.488Z,100715.00
2022-07-28T20:37:39.878Z,100717.00
2022-07-28T20:40:09.198Z,100720.00
2022-07-28T20:42:37.561Z,100718.00
2022-07-28T20:45:06.240Z,100728.00
2022-07-28T20:47:34.863Z,100731.00
2022-07-28T20:50:05.361Z,100731.00
2022-07-28T20:52:34.279Z,100734.00
2022-07-28T20:55:02.201Z,100733.00
2022-07-28T20:57:29.834Z,100730.00
2022-07-28T20:59:57.832Z,100738.00
2022-07-28T21:02:25.422Z,100744.00
2022-07-28T21:04:53.095Z,100738.00
2022-07-28T21:08:00.419Z,100745.00
2022-07-28T21:10:10.174Z,100742.00
2022-07-28T21:12:38.991Z,100752.00
2022-07-28T21:15:08.600Z,100754.00
2022-07-28T21:17:36.951Z,100759.00
2022-07-28T21:20:06.513Z,100763.00
2022-07-28T21:22:34.203Z,100760.00
2022-07-28T21:25:01.681Z,100773.00
2022-07-28T21:27:50.489Z,100773.00
2022-07-28T21:30:18.196Z,100779.00
2022-07-28T21:32:45.759Z,100777.00
2022-07-28T21:35:14.516Z,100791.00
2022-07-28T21:37:42.313Z,100786.00
2022-07-28T21:40:10.573Z,100785.00
2022-07-28T21:42:38.268Z,100788.00
2022-07-28T21:45:11.033Z,100785.00
2022-07-28T21:47:39.264Z,100794.00
2022-07-28T21:50:07.595Z,100797.00
2022-07-28T21:52:37.210Z,100794.00
2022-07-28T21:55:07.835Z,100791.00
2022-07-28T21:57:35.534Z,100793.00
2022-07-28T22:00:07.601Z,100793.00
2022-07-28T22:02:35.274Z,100797.00
2022-07-28T22:05:03.233Z,100797.00
2022-07-28T22:07:31.197Z,100802.00
2022-07-28T22:09:59.909Z,100806.00
2022-07-28T22:12:27.534Z,100811.00
2022-07-28T22:14:54.871Z,100817.00
2022-07-28T22:17:22.239Z,100817.00
2022-07-28T22:19:49.749Z,100815.00
2022-07-28T22:22:18.648Z,100815.00
2022-07-28T22:24:47.181Z,100816.00
2022-07-28T22:27:14.772Z,100820.00
2022-07-28T22:29:45.345Z,100827.00
2022-07-28T22:32:26.649Z,100820.00
2022-07-28T22:34:59.775Z,100827.00
2022-07-28T22:37:27.468Z,100831.00
2022-07-28T22:39:55.294Z,100838.00
2022-07-28T22:42:22.962Z,100843.00
2022-07-28T22:44:50.582Z,100844.00
2022-07-28T22:47:17.998Z,100846.00
2022-07-28T22:49:45.664Z,100844.00
2022-07-28T22:52:15.194Z,100853.00
2022-07-28T22:54:42.867Z,100843.00
2022-07-28T22:57:11.514Z,100843.00
2022-07-28T22:59:40.139Z,100839.00
2022-07-28T23:02:10.352Z,100845.00
2022-07-28T23:04:39.228Z,100844.00
2022-07-28T23:07:12.249Z,100829.00
2022-07-28T23:09:42.420Z,100828.00
2022-07-28T23:12:11.304Z,100832.00
2022-07-28T23:14:38.949Z,100825.00
2022-07-28T23:17:06.574Z,100825.00
2022-07-28T23:19:34.590Z,100821.00
2022-07-28T23:22:02.185Z,100819.00
2022-07-28T23:24:32.772Z,100819.00
2022-07-28T23:27:00.765Z,100826.00
2022-07-28T23:29:28.574Z,100827.00
2022-07-28T23:31:55.970Z,100832.00
2022-07-28T23:34:23.377Z,100833.00
2022-07-28T23:36:51.003Z,100836.00
2022-07-28T23:39:18.576Z,100836.00
2022-07-28T23:41:47.400Z,100844.00
2022-07-28T23:44:15.083Z,100828.00
2022-07-28T23:46:42.711Z,100828.00
2022-07-28T23:49:10.934Z,100826.00
2022-07-28T23:51:46.915Z,100823.00
2022-07-28T23:54:16.756Z,100811.00
2022-07-28T23:56:44.732Z,100809.00
2022-07-28T23:59:14.371Z,100807.00
